createdAt,value
2019-02-28T00:00:01.938Z,12.23
2019-02-28T00:02:32.067Z,11.47
2019-02-28T00:05:05.868Z,8.87
2019-02-28T00:07:33.849Z,9.83
2019-02-28T00:10:03.557Z,13.27
2019-02-28T00:12:35.276Z,8.23
2019-02-28T00:15:07.077Z,9.97
2019-02-28T00:17:36.358Z,11.17
2019-02-28T00:20:13.366Z,9.83
2019-02-28T00:22:54.519Z,8.03
2019-02-28T00:25:25.503Z,12.70
2019-02-28T00:27:56.465Z,9.77
2019-02-28T00:30:25.410Z,12.13
2019-02-28T00:32:59.272Z,9.93
2019-02-28T00:35:30.259Z,12.07
2019-02-28T00:38:01.240Z,9.50
2019-02-28T00:40:30.581Z,10.93
2019-02-28T00:43:01.423Z,12.43
2019-02-28T00:45:30.742Z,10.33
2019-02-28T00:48:00.903Z,8.63
2019-02-28T00:50:34.672Z,10.20
2019-02-28T00:53:07.396Z,8.60
2019-02-28T00:55:38.132Z,9.27
2019-02-28T00:58:07.328Z,8.00
2019-02-28T01:00:40.451Z,9.30
2019-02-28T01:03:13.972Z,10.73
2019-02-28T01:05:44.774Z,10.87
2019-02-28T01:08:24.084Z,9.87
2019-02-28T01:10:54.578Z,10.43
2019-02-28T01:13:28.078Z,9.30
2019-02-28T01:15:58.753Z,8.87
2019-02-28T01:18:34.422Z,10.43
2019-02-28T01:21:00.905Z,11.23
2019-02-28T01:23:31.645Z,9.57
2019-02-28T01:26:01.646Z,8.20
2019-02-28T01:28:30.676Z,9.23
2019-02-28T01:31:01.707Z,8.63
2019-02-28T01:33:33.451Z,10.57
2019-02-28T01:36:03.626Z,8.30
2019-02-28T01:38:35.035Z,11.63
2019-02-28T01:41:05.267Z,10.23
2019-02-28T01:43:37.934Z,11.60
2019-02-28T01:46:06.934Z,13.00
2019-02-28T01:48:40.570Z,11.40
2019-02-28T01:51:09.972Z,12.50
2019-02-28T01:53:40.241Z,11.00
2019-02-28T01:56:09.463Z,12.27
2019-02-28T01:58:42.111Z,12.33
2019-02-28T02:01:14.170Z,15.30
2019-02-28T02:03:45.140Z,9.67
2019-02-28T02:06:34.318Z,8.97
2019-02-28T02:09:03.863Z,10.60
2019-02-28T02:11:35.933Z,11.60
2019-02-28T02:14:07.539Z,12.80
2019-02-28T02:16:41.420Z,10.10
2019-02-28T02:19:10.963Z,11.13
2019-02-28T02:21:40.823Z,11.17
2019-02-28T02:24:11.320Z,10.77
2019-02-28T02:26:46.556Z,10.40
2019-02-28T02:29:20.084Z,12.07
2019-02-28T02:31:50.065Z,13.37
2019-02-28T02:34:24.272Z,12.10
2019-02-28T02:36:57.609Z,11.87
2019-02-28T02:39:31.160Z,10.33
2019-02-28T02:42:00.985Z,12.27
2019-02-28T02:44:33.147Z,15.07
2019-02-28T02:47:03.339Z,9.67
2019-02-28T02:49:35.998Z,10.20
2019-02-28T02:52:07.806Z,11.37
2019-02-28T02:54:40.206Z,12.13
2019-02-28T02:57:13.939Z,11.57
2019-02-28T02:59:45.258Z,10.87
2019-02-28T03:02:15.058Z,10.53
2019-02-28T03:04:45.944Z,9.67
2019-02-28T03:07:23.271Z,11.13
2019-02-28T03:09:51.345Z,12.63
2019-02-28T03:12:20.716Z,10.07
2019-02-28T03:14:51.540Z,12.63
2019-02-28T03:17:21.400Z,11.50
2019-02-28T03:19:50.621Z,9.77
2019-02-28T03:22:28.082Z,10.13
2019-02-28T03:24:58.260Z,10.57
2019-02-28T03:27:27.678Z,11.10
2019-02-28T03:29:56.664Z,7.63
2019-02-28T03:32:39.729Z,8.90
2019-02-28T03:34:59.572Z,11.67
2019-02-28T03:37:33.210Z,10.47
2019-02-28T03:40:05.223Z,12.30
2019-02-28T03:42:34.462Z,8.37
2019-02-28T03:45:06.214Z,9.43
2019-02-28T03:47:39.369Z,12.33
2019-02-28T03:50:09.074Z,8.90
2019-02-28T03:52:44.701Z,8.87
2019-02-28T03:55:17.011Z,9.83
2019-02-28T03:57:46.051Z,9.67
2019-02-28T04:00:16.841Z,9.13
2019-02-28T04:02:46.513Z,10.27
2019-02-28T04:05:16.591Z,8.97
2019-02-28T04:07:53.033Z,12.20
2019-02-28T04:10:22.787Z,12.90
2019-02-28T04:12:52.869Z,12.10
2019-02-28T04:15:24.595Z,9.30
2019-02-28T04:17:56.367Z,11.03
2019-02-28T04:20:27.411Z,10.73
2019-02-28T04:23:00.168Z,12.97
2019-02-28T04:25:30.342Z,13.23
2019-02-28T04:28:02.260Z,12.60
2019-02-28T04:30:42.570Z,12.50
2019-02-28T04:33:10.743Z,11.80
2019-02-28T04:35:41.091Z,9.30
2019-02-28T04:38:10.750Z,13.67
2019-02-28T04:40:39.964Z,10.40
2019-02-28T04:43:11.301Z,9.63
2019-02-28T04:45:43.650Z,13.13
2019-02-28T04:48:14.626Z,10.80
2019-02-28T04:50:46.668Z,8.00
2019-02-28T04:53:18.938Z,7.27
2019-02-28T04:55:49.030Z,8.70
2019-02-28T04:58:22.409Z,8.47
2019-02-28T05:00:52.645Z,12.13
2019-02-28T05:03:29.042Z,15.60
2019-02-28T05:05:58.390Z,16.00
2019-02-28T05:08:27.648Z,15.87
2019-02-28T05:10:59.249Z,19.50
2019-02-28T05:13:28.270Z,19.03
2019-02-28T05:16:04.385Z,33.90
2019-02-28T05:18:37.075Z,109.70
2019-02-28T05:21:07.390Z,109.30
2019-02-28T05:23:36.827Z,68.00
2019-02-28T05:26:11.829Z,37.07
2019-02-28T05:28:46.710Z,26.97
2019-02-28T05:31:15.929Z,22.70
2019-02-28T05:33:48.050Z,20.07
2019-02-28T05:36:17.258Z,17.37
2019-02-28T05:38:46.254Z,17.57
2019-02-28T05:41:15.986Z,16.97
2019-02-28T05:43:47.977Z,15.77
2019-02-28T05:46:23.772Z,17.87
2019-02-28T05:48:52.353Z,18.83
2019-02-28T05:51:24.913Z,11.30
2019-02-28T05:53:53.727Z,13.37
2019-02-28T05:56:23.764Z,11.60
2019-02-28T05:58:54.319Z,10.93
2019-02-28T06:01:24.509Z,12.40
2019-02-28T06:03:55.847Z,14.40
2019-02-28T06:06:26.927Z,12.90
2019-02-28T06:08:56.210Z,12.70
2019-02-28T06:11:25.178Z,13.00
2019-02-28T06:13:58.530Z,21.67
2019-02-28T06:16:31.844Z,14.77
2019-02-28T06:19:04.593Z,17.60
2019-02-28T06:21:34.362Z,19.43
2019-02-28T06:24:04.028Z,27.87
2019-02-28T06:26:33.064Z,25.80
2019-02-28T06:29:05.126Z,17.93
2019-02-28T06:31:38.777Z,17.17
2019-02-28T06:34:09.307Z,35.37
2019-02-28T06:36:44.433Z,22.40
2019-02-28T06:39:13.483Z,26.53
2019-02-28T06:41:42.439Z,15.60
2019-02-28T06:44:13.411Z,15.20
2019-02-28T06:46:43.262Z,15.13
2019-02-28T06:49:12.731Z,16.47
2019-02-28T06:51:41.967Z,17.47
2019-02-28T06:54:12.029Z,20.73
2019-02-28T06:56:41.021Z,15.33
2019-02-28T06:59:11.067Z,25.10
2019-02-28T07:01:41.114Z,20.87
2019-02-28T07:04:19.826Z,26.90
2019-02-28T07:06:51.264Z,26.30
2019-02-28T07:09:22.495Z,27.63
2019-02-28T07:11:54.937Z,25.37
2019-02-28T07:14:25.421Z,32.20
2019-02-28T07:16:56.136Z,32.67
2019-02-28T07:19:27.041Z,35.83
2019-02-28T07:21:57.090Z,29.43
2019-02-28T07:24:30.256Z,29.30
2019-02-28T07:27:04.221Z,29.97
2019-02-28T07:29:33.859Z,28.83
2019-02-28T07:32:06.849Z,30.90
2019-02-28T07:34:37.074Z,29.83
2019-02-28T07:37:12.808Z,30.73
2019-02-28T07:39:42.793Z,30.83
2019-02-28T07:42:15.524Z,31.30
2019-02-28T07:44:46.674Z,25.60
2019-02-28T07:47:17.545Z,30.60
2019-02-28T07:49:47.353Z,28.97
2019-02-28T07:52:16.655Z,30.13
2019-02-28T07:54:51.480Z,24.23
2019-02-28T07:57:22.417Z,25.30
2019-02-28T07:59:51.427Z,25.80
2019-02-28T08:02:20.390Z,27.40
2019-02-28T08:04:53.897Z,27.57
2019-02-28T08:07:21.533Z,26.50
2019-02-28T08:09:52.283Z,28.07
2019-02-28T08:12:21.236Z,30.20
2019-02-28T08:14:55.359Z,21.90
2019-02-28T08:17:26.059Z,23.63
2019-02-28T08:19:55.300Z,25.43
2019-02-28T08:22:27.309Z,26.07
2019-02-28T08:24:57.494Z,26.27
2019-02-28T08:27:27.643Z,28.13
2019-02-28T08:30:00.690Z,31.00
2019-02-28T08:32:33.884Z,25.30
2019-02-28T08:35:10.543Z,26.47
2019-02-28T08:37:39.856Z,28.23
2019-02-28T08:40:26.607Z,29.27
2019-02-28T08:42:56.282Z,27.37
2019-02-28T08:45:32.689Z,24.53
2019-02-28T08:47:58.591Z,25.53
2019-02-28T08:50:32.235Z,26.67
2019-02-28T08:53:04.537Z,23.67
2019-02-28T08:55:41.632Z,27.83
2019-02-28T08:58:09.983Z,26.27
2019-02-28T09:00:40.532Z,29.67
2019-02-28T09:03:12.749Z,29.97
2019-02-28T09:05:46.130Z,29.47
2019-02-28T09:08:17.161Z,31.30
2019-02-28T09:10:47.915Z,25.30
2019-02-28T09:13:17.503Z,29.77
2019-02-28T09:15:48.260Z,31.77
2019-02-28T09:18:17.683Z,29.50
2019-02-28T09:20:47.658Z,31.00
2019-02-28T09:23:18.344Z,30.77
2019-02-28T09:25:49.395Z,29.00
2019-02-28T09:28:18.354Z,27.07
2019-02-28T09:30:51.088Z,32.63
2019-02-28T09:33:28.174Z,32.53
2019-02-28T09:36:01.738Z,31.93
2019-02-28T09:38:31.976Z,32.33
2019-02-28T09:41:04.588Z,33.77
2019-02-28T09:43:34.079Z,32.83
2019-02-28T09:46:04.823Z,31.67
2019-02-28T09:48:37.126Z,30.43
2019-02-28T09:51:09.124Z,29.77
2019-02-28T09:53:38.436Z,34.73
2019-02-28T09:56:10.098Z,30.00
2019-02-28T09:58:42.590Z,29.17
2019-02-28T10:01:21.193Z,27.83
2019-02-28T10:03:52.233Z,30.57
2019-02-28T10:06:22.461Z,30.83
2019-02-28T10:08:52.344Z,34.43
2019-02-28T10:11:21.871Z,27.23
2019-02-28T10:13:56.139Z,31.53
2019-02-28T10:16:26.815Z,33.17
2019-02-28T10:18:57.538Z,32.97
2019-02-28T10:21:29.841Z,33.47
2019-02-28T10:24:00.915Z,31.30
2019-02-28T10:26:39.897Z,34.33
2019-02-28T10:29:09.174Z,28.80
2019-02-28T10:31:40.206Z,29.40
2019-02-28T10:34:11.334Z,30.37
2019-02-28T10:36:47.386Z,32.93
2019-02-28T10:39:13.359Z,28.37
2019-02-28T10:41:42.539Z,25.70
2019-02-28T10:44:11.828Z,36.80
2019-02-28T10:46:43.092Z,30.97
2019-02-28T10:49:13.210Z,30.43
2019-02-28T10:51:44.659Z,30.17
2019-02-28T10:54:14.592Z,30.20
2019-02-28T10:56:47.839Z,29.07
2019-02-28T10:59:21.347Z,29.03
2019-02-28T11:01:50.421Z,27.93
2019-02-28T11:04:19.746Z,31.33
2019-02-28T11:06:50.877Z,28.67
2019-02-28T11:09:25.226Z,31.57
2019-02-28T11:11:53.579Z,32.20
2019-02-28T11:14:24.805Z,31.30
2019-02-28T11:16:59.385Z,26.10
2019-02-28T11:19:26.557Z,30.73
2019-02-28T11:21:57.898Z,27.83
2019-02-28T11:24:28.160Z,30.57
2019-02-28T11:27:01.481Z,32.53
2019-02-28T11:29:30.759Z,29.00
2019-02-28T11:32:02.115Z,30.57
2019-02-28T11:34:33.575Z,30.33
2019-02-28T11:37:05.472Z,30.90
2019-02-28T11:39:35.253Z,28.27
2019-02-28T11:42:08.135Z,27.10
2019-02-28T11:44:37.134Z,27.30
2019-02-28T11:47:11.154Z,27.00
2019-02-28T11:49:42.140Z,27.37
2019-02-28T11:52:12.138Z,28.53
2019-02-28T11:54:41.129Z,24.17
2019-02-28T11:57:11.347Z,27.23
2019-02-28T11:59:40.314Z,30.30
2019-02-28T12:02:11.449Z,28.63
2019-02-28T12:04:41.172Z,29.27
2019-02-28T12:07:13.316Z,25.67
2019-02-28T12:09:42.924Z,29.27
2019-02-28T12:12:13.435Z,25.37
2019-02-28T12:14:42.748Z,26.03
2019-02-28T12:17:15.074Z,25.97
2019-02-28T12:19:47.569Z,28.00
2019-02-28T12:22:17.211Z,29.77
2019-02-28T12:24:46.207Z,25.47
2019-02-28T12:27:15.201Z,26.27
2019-02-28T12:29:45.667Z,26.20
2019-02-28T12:32:17.672Z,25.60
2019-02-28T12:34:53.917Z,25.03
2019-02-28T12:37:23.364Z,28.53
2019-02-28T12:39:54.775Z,28.90
2019-02-28T12:42:24.533Z,25.13
2019-02-28T12:44:56.248Z,29.70
2019-02-28T12:47:27.091Z,29.50
2019-02-28T12:49:59.615Z,27.10
2019-02-28T12:52:31.554Z,28.97
2019-02-28T12:55:04.802Z,29.23
2019-02-28T12:57:34.122Z,29.60
2019-02-28T13:00:07.201Z,28.63
2019-02-28T13:02:39.673Z,29.63
2019-02-28T13:05:14.774Z,28.23
2019-02-28T13:07:53.876Z,32.37
2019-02-28T13:10:27.972Z,29.27
2019-02-28T13:13:05.802Z,31.40
2019-02-28T13:15:27.443Z,27.40
2019-02-28T13:17:57.563Z,33.73
2019-02-28T13:20:32.635Z,32.07
2019-02-28T13:23:01.230Z,32.17
2019-02-28T13:25:32.711Z,30.57
2019-02-28T13:28:02.053Z,30.77
2019-02-28T13:30:31.140Z,31.40
2019-02-28T13:33:00.727Z,33.27
2019-02-28T13:35:32.944Z,30.20
2019-02-28T13:38:04.577Z,30.87
2019-02-28T13:40:40.894Z,23.97
2019-02-28T13:43:09.109Z,27.77
2019-02-28T13:45:39.197Z,28.93
2019-02-28T13:48:10.959Z,26.63
2019-02-28T13:50:45.232Z,27.90
2019-02-28T13:53:18.591Z,27.30
2019-02-28T13:55:45.351Z,24.37
2019-02-28T13:58:17.685Z,26.57
2019-02-28T14:00:47.329Z,30.53
2019-02-28T14:03:18.631Z,27.23
2019-02-28T14:05:50.089Z,31.67
2019-02-28T14:08:20.921Z,26.17
2019-02-28T14:10:50.391Z,28.50
2019-02-28T14:13:19.924Z,32.00
2019-02-28T14:15:52.532Z,28.53
2019-02-28T14:18:24.388Z,27.00
2019-02-28T14:20:53.378Z,24.80
2019-02-28T14:23:22.980Z,21.77
2019-02-28T14:25:53.963Z,23.87
2019-02-28T14:28:24.502Z,25.70
2019-02-28T14:30:54.402Z,30.07
2019-02-28T14:33:25.972Z,21.83
2019-02-28T14:35:56.978Z,19.87
2019-02-28T14:38:29.629Z,18.23
2019-02-28T14:40:59.406Z,21.03
2019-02-28T14:43:29.276Z,23.07
2019-02-28T14:46:01.834Z,23.53
2019-02-28T14:48:31.647Z,22.20
2019-02-28T14:51:02.144Z,23.07
2019-02-28T14:53:36.015Z,27.07
2019-02-28T14:56:07.313Z,26.90
2019-02-28T14:58:38.305Z,23.77
2019-02-28T15:01:07.488Z,27.10
2019-02-28T15:03:38.466Z,28.57
2019-02-28T15:06:08.551Z,27.23
2019-02-28T15:08:39.341Z,28.67
2019-02-28T15:11:10.201Z,31.20
2019-02-28T15:13:41.889Z,29.67
2019-02-28T15:16:13.168Z,29.43
2019-02-28T15:18:44.378Z,26.63
2019-02-28T15:21:13.821Z,24.50
2019-02-28T15:23:44.496Z,27.73
2019-02-28T15:26:18.725Z,24.77
2019-02-28T15:28:50.601Z,22.67
2019-02-28T15:31:20.032Z,25.10
2019-02-28T15:33:49.899Z,25.40
2019-02-28T15:36:20.946Z,26.43
2019-02-28T15:38:52.198Z,30.47
2019-02-28T15:41:23.718Z,28.07
2019-02-28T15:43:53.550Z,25.93
2019-02-28T15:46:25.118Z,20.77
2019-02-28T15:48:56.389Z,22.87
2019-02-28T15:51:29.266Z,19.50
2019-02-28T15:53:58.879Z,20.63
2019-02-28T15:56:29.242Z,17.90
2019-02-28T15:59:11.495Z,16.97
2019-02-28T16:01:39.163Z,17.00
2019-02-28T16:04:08.400Z,14.80
2019-02-28T16:06:38.882Z,18.97
2019-02-28T16:09:10.894Z,15.40
2019-02-28T16:11:40.973Z,18.30
2019-02-28T16:14:14.928Z,15.43
2019-02-28T16:16:47.039Z,15.90
2019-02-28T16:19:18.804Z,16.20
2019-02-28T16:21:50.114Z,16.93
2019-02-28T16:24:19.304Z,17.77
2019-02-28T16:26:48.806Z,19.77
2019-02-28T16:29:21.318Z,13.10
2019-02-28T16:31:57.908Z,15.33
2019-02-28T16:34:27.955Z,20.50
2019-02-28T16:37:01.002Z,14.50
2019-02-28T16:39:31.803Z,19.07
2019-02-28T16:42:01.994Z,18.80
2019-02-28T16:44:32.440Z,12.73
2019-02-28T16:47:02.509Z,14.97
2019-02-28T16:49:31.560Z,24.83
2019-02-28T16:52:02.507Z,22.80
2019-02-28T16:54:32.841Z,13.43
2019-02-28T16:57:04.316Z,24.13
2019-02-28T16:59:33.335Z,37.00
2019-02-28T17:02:04.742Z,19.53
2019-02-28T17:04:38.316Z,23.47
2019-02-28T17:07:09.555Z,17.73
2019-02-28T17:09:45.479Z,27.73
2019-02-28T17:12:40.285Z,30.97
2019-02-28T17:15:23.176Z,22.27
2019-02-28T17:17:56.546Z,28.20
2019-02-28T17:20:26.024Z,26.00
2019-02-28T17:23:02.186Z,22.40
2019-02-28T17:25:35.865Z,20.33
2019-02-28T17:28:19.116Z,30.93
2019-02-28T17:31:26.029Z,16.40
2019-02-28T17:33:55.818Z,20.17
2019-02-28T17:36:25.835Z,15.37
2019-02-28T17:38:56.553Z,19.97
2019-02-28T17:41:26.256Z,21.27
2019-02-28T17:44:44.170Z,20.77
2019-02-28T17:47:29.776Z,16.23
2019-02-28T17:50:42.840Z,17.33
2019-02-28T17:54:04.430Z,20.73
2019-02-28T17:57:08.829Z,24.30
2019-02-28T18:00:12.898Z,22.30
2019-02-28T18:03:31.651Z,22.80
2019-02-28T18:07:08.901Z,24.43
2019-02-28T18:10:16.355Z,17.37
2019-02-28T18:13:19.956Z,15.73
2019-02-28T18:16:24.752Z,18.67
2019-02-28T18:19:21.603Z,18.90
2019-02-28T18:22:40.679Z,17.03
2019-02-28T18:25:53.404Z,13.77
2019-02-28T18:28:58.117Z,16.27
2019-02-28T18:31:31.232Z,17.83
2019-02-28T18:34:10.502Z,18.50
2019-02-28T18:36:48.949Z,18.10
2019-02-28T18:39:22.053Z,20.80
2019-02-28T18:41:54.447Z,15.97
2019-02-28T18:44:24.687Z,19.63
2019-02-28T18:46:54.742Z,16.73
2019-02-28T18:49:26.705Z,17.40
2019-02-28T18:51:59.593Z,19.47
2019-02-28T18:54:34.227Z,15.77
2019-02-28T18:57:07.176Z,14.23
2019-02-28T18:59:37.815Z,14.17
2019-02-28T19:02:10.317Z,22.60
2019-02-28T19:04:53.035Z,20.93
2019-02-28T19:07:23.908Z,17.97
2019-02-28T19:09:57.044Z,22.53
2019-02-28T19:12:27.146Z,16.03
2019-02-28T19:14:58.658Z,16.50
2019-02-28T19:17:32.361Z,17.87
2019-02-28T19:20:02.536Z,14.87
2019-02-28T19:22:35.535Z,15.03
2019-02-28T19:25:12.856Z,17.10
2019-02-28T19:27:42.803Z,17.47
2019-02-28T19:30:16.647Z,14.47
2019-02-28T19:32:49.504Z,17.67
2019-02-28T19:35:22.865Z,13.37
2019-02-28T19:37:55.125Z,14.37
2019-02-28T19:40:37.604Z,14.07
2019-02-28T19:43:10.598Z,15.93
2019-02-28T19:45:40.918Z,13.33
2019-02-28T19:48:13.522Z,16.40
2019-02-28T19:50:47.342Z,15.03
2019-02-28T19:53:20.596Z,14.90
2019-02-28T19:55:52.634Z,14.00
2019-02-28T19:58:21.939Z,17.93
2019-02-28T20:00:52.089Z,12.50
2019-02-28T20:03:23.533Z,15.37
2019-02-28T20:05:53.906Z,14.23
2019-02-28T20:08:25.608Z,12.57
2019-02-28T20:10:57.298Z,13.73
2019-02-28T20:13:30.098Z,14.47
2019-02-28T20:16:09.436Z,12.50
2019-02-28T20:18:38.698Z,9.53
2019-02-28T20:21:08.687Z,13.87
2019-02-28T20:23:45.722Z,9.47
2019-02-28T20:26:17.965Z,15.27
2019-02-28T20:28:49.119Z,17.90
2019-02-28T20:31:22.392Z,16.10
2019-02-28T20:33:52.640Z,12.10
2019-02-28T20:36:22.288Z,14.63
2019-02-28T20:38:54.941Z,12.87
2019-02-28T20:41:26.256Z,13.13
2019-02-28T20:43:58.042Z,11.27
2019-02-28T20:46:28.053Z,15.33
2019-02-28T20:49:01.970Z,13.57
2019-02-28T20:51:31.256Z,14.63
2019-02-28T20:54:01.602Z,17.10
2019-02-28T20:56:31.745Z,12.00
2019-02-28T20:59:05.681Z,13.67
2019-02-28T21:01:34.524Z,16.87
2019-02-28T21:04:08.086Z,14.60
2019-02-28T21:06:37.377Z,12.90
2019-02-28T21:09:07.899Z,10.97
2019-02-28T21:11:37.494Z,16.77
2019-02-28T21:14:12.524Z,12.87
2019-02-28T21:16:43.975Z,13.57
2019-02-28T21:19:16.072Z,14.67
2019-02-28T21:21:45.983Z,16.50
2019-02-28T21:24:16.526Z,14.13
2019-02-28T21:26:46.439Z,13.77
2019-02-28T21:29:15.669Z,11.10
2019-02-28T21:31:48.788Z,16.97
2019-02-28T21:34:19.377Z,12.87
2019-02-28T21:36:49.852Z,12.03
2019-02-28T21:39:19.911Z,16.60
2019-02-28T21:41:50.612Z,16.23
2019-02-28T21:44:21.243Z,13.90
2019-02-28T21:46:52.425Z,18.67
2019-02-28T21:49:21.544Z,13.17
2019-02-28T21:51:52.401Z,19.07
2019-02-28T21:54:22.736Z,24.63
2019-02-28T21:56:54.740Z,13.90
2019-02-28T21:59:28.797Z,14.97
2019-02-28T22:01:58.343Z,13.33
2019-02-28T22:04:32.325Z,10.43
2019-02-28T22:07:01.325Z,10.33
2019-02-28T22:09:30.970Z,12.40
2019-02-28T22:12:01.034Z,16.40
2019-02-28T22:14:34.185Z,10.93
2019-02-28T22:17:03.343Z,14.80
2019-02-28T22:19:32.299Z,16.70
2019-02-28T22:22:01.631Z,14.57
2019-02-28T22:24:39.023Z,12.13
2019-02-28T22:27:08.319Z,12.47
2019-02-28T22:29:37.539Z,17.67
2019-02-28T22:32:28.727Z,16.33
2019-02-28T22:35:19.377Z,8.90
2019-02-28T22:37:49.557Z,11.13
2019-02-28T22:40:19.358Z,16.50
2019-02-28T22:42:49.603Z,13.17
2019-02-28T22:45:19.746Z,12.60
2019-02-28T22:47:51.005Z,12.87
2019-02-28T22:50:20.239Z,13.70
2019-02-28T22:52:49.238Z,12.10
2019-02-28T22:55:20.233Z,9.40
2019-02-28T22:57:50.408Z,13.97
2019-02-28T23:00:38.340Z,13.87
2019-02-28T23:03:08.196Z,10.10
2019-02-28T23:05:37.292Z,7.20
2019-02-28T23:08:16.518Z,9.60
2019-02-28T23:10:47.222Z,15.53
2019-02-28T23:13:18.487Z,11.50
2019-02-28T23:15:50.058Z,13.17
2019-02-28T23:18:20.554Z,9.40
2019-02-28T23:20:49.987Z,11.40
2019-02-28T23:23:22.287Z,12.90
2019-02-28T23:25:52.863Z,13.43
2019-02-28T23:28:29.059Z,16.97
2019-02-28T23:31:39.414Z,11.90
2019-02-28T23:34:13.531Z,11.13
2019-02-28T23:36:43.792Z,12.37
2019-02-28T23:39:13.089Z,9.77
2019-02-28T23:41:43.368Z,10.60
2019-02-28T23:44:12.618Z,9.33
2019-02-28T23:46:43.845Z,9.60
2019-02-28T23:49:16.053Z,14.70
2019-02-28T23:51:45.317Z,12.77
2019-02-28T23:54:15.447Z,9.93
2019-02-28T23:56:46.151Z,11.97
2019-02-28T23:59:16.459Z,9.37
